sensor_id;sensor_type;location;lat;lon;timestamp;pressure;altitude;pressure_sealevel;temperature;humidity
19150;BME280;9707;49.158;8.632;2023-02-19T00:01:12;100991.63;;;19.54;38.34
19150;BME280;9707;49.158;8.632;2023-02-19T00:03:38;100999.75;;;19.54;38.36
19150;BME280;9707;49.158;8.632;2023-02-19T00:06:06;100996.19;;;19.53;38.41
19150;BME280;9707;49.158;8.632;2023-02-19T00:08:32;101005.28;;;19.52;38.30
19150;BME280;9707;49.158;8.632;2023-02-19T00:11:06;101010.69;;;19.52;38.30
19150;BME280;9707;49.158;8.632;2023-02-19T00:13:36;101013.47;;;19.51;38.19
19150;BME280;9707;49.158;8.632;2023-02-19T00:16:06;101000.06;;;19.49;38.48
19150;BME280;9707;49.158;8.632;2023-02-19T00:18:32;101000.06;;;19.49;38.25
19150;BME280;9707;49.158;8.632;2023-02-19T00:20:57;100990.13;;;19.50;38.06
19150;BME280;9707;49.158;8.632;2023-02-19T00:23:23;100982.13;;;19.48;38.26
19150;BME280;9707;49.158;8.632;2023-02-19T00:25:48;100972.16;;;19.49;38.26
19150;BME280;9707;49.158;8.632;2023-02-19T00:28:13;100981.25;;;19.48;38.21
19150;BME280;9707;49.158;8.632;2023-02-19T00:30:39;100983.19;;;19.46;37.98
19150;BME280;9707;49.158;8.632;2023-02-19T00:33:04;100981.34;;;19.46;38.17
19150;BME280;9707;49.158;8.632;2023-02-19T00:35:32;100960.78;;;19.44;38.25
19150;BME280;9707;49.158;8.632;2023-02-19T00:37:58;100971.59;;;19.44;38.08
19150;BME280;9707;49.158;8.632;2023-02-19T00:40:23;100982.41;;;19.44;38.12
19150;BME280;9707;49.158;8.632;2023-02-19T00:42:50;100985.09;;;19.44;38.16
19150;BME280;9707;49.158;8.632;2023-02-19T00:45:15;100958.00;;;19.45;38.33
19150;BME280;9707;49.158;8.632;2023-02-19T00:47:41;100963.50;;;19.44;38.30
19150;BME280;9707;49.158;8.632;2023-02-19T00:50:06;100968.91;;;19.44;38.31
19150;BME280;9707;49.158;8.632;2023-02-19T00:52:31;100986.09;;;19.43;38.32
19150;BME280;9707;49.158;8.632;2023-02-19T00:54:56;100994.19;;;19.43;38.39
19150;BME280;9707;49.158;8.632;2023-02-19T00:57:22;101002.38;;;19.41;38.62
19150;BME280;9707;49.158;8.632;2023-02-19T00:59:47;100989.75;;;19.42;38.58
19150;BME280;9707;49.158;8.632;2023-02-19T01:02:12;100991.59;;;19.41;38.53
19150;BME280;9707;49.158;8.632;2023-02-19T01:04:37;100987.16;;;19.40;38.34
19150;BME280;9707;49.158;8.632;2023-02-19T01:07:03;100984.44;;;19.40;38.86
19150;BME280;9707;49.158;8.632;2023-02-19T01:09:28;100975.50;;;19.40;38.86
19150;BME280;9707;49.158;8.632;2023-02-19T01:11:53;100973.72;;;19.39;38.73
19150;BME280;9707;49.158;8.632;2023-02-19T01:14:18;100960.22;;;19.39;38.86
19150;BME280;9707;49.158;8.632;2023-02-19T01:16:44;100970.09;;;19.40;38.92
19150;BME280;9707;49.158;8.632;2023-02-19T01:19:09;100978.28;;;19.38;38.91
19150;BME280;9707;49.158;8.632;2023-02-19T01:21:34;100964.88;;;19.37;38.79
19150;BME280;9707;49.158;8.632;2023-02-19T01:23:59;100969.53;;;19.35;38.78
19150;BME280;9707;49.158;8.632;2023-02-19T01:26:29;100973.16;;;19.34;38.77
19150;BME280;9707;49.158;8.632;2023-02-19T01:28:56;100977.63;;;19.35;38.78
19150;BME280;9707;49.158;8.632;2023-02-19T01:31:23;100985.72;;;19.35;38.83
19150;BME280;9707;49.158;8.632;2023-02-19T01:33:54;100984.84;;;19.34;38.77
19150;BME280;9707;49.158;8.632;2023-02-19T01:36:19;100977.72;;;19.33;38.92
19150;BME280;9707;49.158;8.632;2023-02-19T01:38:46;100982.25;;;19.33;38.97
19150;BME280;9707;49.158;8.632;2023-02-19T01:41:14;100984.19;;;19.31;38.91
19150;BME280;9707;49.158;8.632;2023-02-19T01:44:03;100993.28;;;19.30;38.87
19150;BME280;9707;49.158;8.632;2023-02-19T01:46:32;100977.25;;;19.27;38.90
19150;BME280;9707;49.158;8.632;2023-02-19T01:49:03;100970.13;;;19.26;38.91
19150;BME280;9707;49.158;8.632;2023-02-19T01:51:32;100973.78;;;19.25;38.95
19150;BME280;9707;49.158;8.632;2023-02-19T01:54:00;100969.34;;;19.24;38.83
19150;BME280;9707;49.158;8.632;2023-02-19T01:56:28;100953.13;;;19.24;38.83
19150;BME280;9707;49.158;8.632;2023-02-19T01:58:55;100942.44;;;19.22;38.94
19150;BME280;9707;49.158;8.632;2023-02-19T02:01:22;100937.91;;;19.23;38.93
19150;BME280;9707;49.158;8.632;2023-02-19T02:03:47;100930.75;;;19.22;38.97
19150;BME280;9707;49.158;8.632;2023-02-19T02:08:39;100953.25;;;19.22;38.94
19150;BME280;9707;49.158;8.632;2023-02-19T02:11:23;100960.63;;;19.19;39.01
19150;BME280;9707;49.158;8.632;2023-02-19T02:13:49;100952.53;;;19.19;38.98
19150;BME280;9707;49.158;8.632;2023-02-19T02:16:22;100952.53;;;19.19;38.94
19150;BME280;9707;49.158;8.632;2023-02-19T02:19:17;100951.69;;;19.18;38.90
19150;BME280;9707;49.158;8.632;2023-02-19T02:22:06;100948.31;;;19.15;38.91
19150;BME280;9707;49.158;8.632;2023-02-19T02:24:52;100956.41;;;19.15;38.97
19150;BME280;9707;49.158;8.632;2023-02-19T02:27:38;100943.97;;;19.12;39.00
19150;BME280;9707;49.158;8.632;2023-02-19T02:30:17;100925.06;;;19.12;38.91
19150;BME280;9707;49.158;8.632;2023-02-19T02:33:00;100929.50;;;19.13;38.82
19150;BME280;9707;49.158;8.632;2023-02-19T02:35:57;100925.94;;;19.13;38.90
19150;BME280;9707;49.158;8.632;2023-02-19T02:38:26;100935.00;;;19.12;38.79
19150;BME280;9707;49.158;8.632;2023-02-19T02:40:53;100934.25;;;19.10;38.84
19150;BME280;9707;49.158;8.632;2023-02-19T02:43:19;100949.47;;;19.11;38.89
19150;BME280;9707;49.158;8.632;2023-02-19T02:45:44;100929.59;;;19.12;38.85
19150;BME280;9707;49.158;8.632;2023-02-19T02:50:51;100932.31;;;19.12;38.77
19150;BME280;9707;49.158;8.632;2023-02-19T02:53:32;100939.53;;;19.11;38.89
19150;BME280;9707;49.158;8.632;2023-02-19T02:56:18;100932.50;;;19.09;38.68
19150;BME280;9707;49.158;8.632;2023-02-19T02:58:45;100931.72;;;19.07;38.95
19150;BME280;9707;49.158;8.632;2023-02-19T03:01:20;100927.22;;;19.07;38.89
19150;BME280;9707;49.158;8.632;2023-02-19T03:04:17;100921.13;;;19.04;38.85
19150;BME280;9707;49.158;8.632;2023-02-19T03:06:46;100913.13;;;19.02;39.00
19150;BME280;9707;49.158;8.632;2023-02-19T03:09:21;100924.78;;;19.03;39.02
19150;BME280;9707;49.158;8.632;2023-02-19T03:11:56;100927.72;;;19.00;39.04
19150;BME280;9707;49.158;8.632;2023-02-19T03:14:50;100931.38;;;18.99;39.13
19150;BME280;9707;49.158;8.632;2023-02-19T03:17:43;100916.25;;;18.96;39.02
19150;BME280;9707;49.158;8.632;2023-02-19T03:20:30;100921.84;;;18.93;39.03
19150;BME280;9707;49.158;8.632;2023-02-19T03:22:59;100932.53;;;18.95;39.15
19150;BME280;9707;49.158;8.632;2023-02-19T03:25:29;100924.34;;;18.96;39.06
19150;BME280;9707;49.158;8.632;2023-02-19T03:28:15;100919.22;;;18.92;38.89
19150;BME280;9707;49.158;8.632;2023-02-19T03:30:48;100921.06;;;18.91;39.20
19150;BME280;9707;49.158;8.632;2023-02-19T03:33:19;100932.81;;;18.90;39.09
19150;BME280;9707;49.158;8.632;2023-02-19T03:35:49;100941.78;;;18.91;39.29
19150;BME280;9707;49.158;8.632;2023-02-19T03:38:24;100942.69;;;18.91;39.32
19150;BME280;9707;49.158;8.632;2023-02-19T03:40:57;100937.28;;;18.91;39.32
19150;BME280;9707;49.158;8.632;2023-02-19T03:43:47;100944.31;;;18.94;39.37
19150;BME280;9707;49.158;8.632;2023-02-19T03:46:21;100946.13;;;18.93;39.45
19150;BME280;9707;49.158;8.632;2023-02-19T03:48:53;100940.72;;;18.93;39.27
19150;BME280;9707;49.158;8.632;2023-02-19T03:51:32;100947.00;;;18.94;39.41
19150;BME280;9707;49.158;8.632;2023-02-19T03:54:19;100942.56;;;18.93;39.46
19150;BME280;9707;49.158;8.632;2023-02-19T03:57:20;100945.25;;;18.93;39.64
19150;BME280;9707;49.158;8.632;2023-02-19T04:00:15;100950.66;;;18.93;39.69
19150;BME280;9707;49.158;8.632;2023-02-19T04:02:57;100947.00;;;18.94;39.91
19150;BME280;9707;49.158;8.632;2023-02-19T04:05:26;100942.47;;;18.94;40.07
19150;BME280;9707;49.158;8.632;2023-02-19T04:07:57;100952.41;;;18.94;40.12
19150;BME280;9707;49.158;8.632;2023-02-19T04:10:25;100941.63;;;18.94;40.20
19150;BME280;9707;49.158;8.632;2023-02-19T04:12:56;100948.81;;;18.93;40.14
19150;BME280;9707;49.158;8.632;2023-02-19T04:15:26;100947.00;;;18.94;40.39
19150;BME280;9707;49.158;8.632;2023-02-19T04:17:59;100950.47;;;18.96;40.41
19150;BME280;9707;49.158;8.632;2023-02-19T04:20:29;100971.19;;;18.95;40.32
19150;BME280;9707;49.158;8.632;2023-02-19T04:22:55;100962.31;;;18.93;40.51
19150;BME280;9707;49.158;8.632;2023-02-19T04:25:22;100966.84;;;18.93;40.39
19150;BME280;9707;49.158;8.632;2023-02-19T04:27:49;100966.84;;;18.93;40.61
19150;BME280;9707;49.158;8.632;2023-02-19T04:30:14;100961.56;;;18.91;40.63
19150;BME280;9707;49.158;8.632;2023-02-19T04:32:39;100953.47;;;18.91;40.63
19150;BME280;9707;49.158;8.632;2023-02-19T04:35:05;100959.72;;;18.92;40.66
19150;BME280;9707;49.158;8.632;2023-02-19T04:37:30;100937.16;;;18.93;40.53
19150;BME280;9707;49.158;8.632;2023-02-19T04:39:55;100958.88;;;18.91;40.47
19150;BME280;9707;49.158;8.632;2023-02-19T04:42:21;100965.13;;;18.92;40.43
19150;BME280;9707;49.158;8.632;2023-02-19T04:44:46;100959.72;;;18.92;40.56
19150;BME280;9707;49.158;8.632;2023-02-19T04:47:11;100966.09;;;18.91;40.59
19150;BME280;9707;49.158;8.632;2023-02-19T04:49:36;100980.56;;;18.90;40.70
19150;BME280;9707;49.158;8.632;2023-02-19T04:52:04;100976.13;;;18.89;40.88
19150;BME280;9707;49.158;8.632;2023-02-19T04:54:29;100974.38;;;18.88;41.10
19150;BME280;9707;49.158;8.632;2023-02-19T04:56:55;100973.63;;;18.86;41.02
19150;BME280;9707;49.158;8.632;2023-02-19T04:59:21;100976.31;;;18.86;41.27
19150;BME280;9707;49.158;8.632;2023-02-19T05:01:46;100976.31;;;18.86;41.12
19150;BME280;9707;49.158;8.632;2023-02-19T05:04:12;100975.56;;;18.84;41.20
19150;BME280;9707;49.158;8.632;2023-02-19T05:06:37;100966.50;;;18.85;41.31
19150;BME280;9707;49.158;8.632;2023-02-19T05:09:02;100969.19;;;18.85;41.13
19150;BME280;9707;49.158;8.632;2023-02-19T05:11:27;100967.47;;;18.84;41.07
19150;BME280;9707;49.158;8.632;2023-02-19T05:13:54;100954.91;;;18.83;40.98
19150;BME280;9707;49.158;8.632;2023-02-19T05:16:19;100941.53;;;18.81;41.09
19150;BME280;9707;49.158;8.632;2023-02-19T05:18:45;100946.03;;;18.81;40.87
19150;BME280;9707;49.158;8.632;2023-02-19T05:21:11;100947.78;;;18.82;41.08
19150;BME280;9707;49.158;8.632;2023-02-19T05:23:37;100946.03;;;18.81;41.07
19150;BME280;9707;49.158;8.632;2023-02-19T05:26:05;100973.03;;;18.81;41.02
19150;BME280;9707;49.158;8.632;2023-02-19T05:28:30;100966.66;;;18.82;40.95
19150;BME280;9707;49.158;8.632;2023-02-19T05:30:56;100957.72;;;18.81;40.96
19150;BME280;9707;49.158;8.632;2023-02-19T05:33:23;100954.06;;;18.82;40.82
19150;BME280;9707;49.158;8.632;2023-02-19T05:35:50;100964.84;;;18.82;40.97
19150;BME280;9707;49.158;8.632;2023-02-19T05:38:17;100958.56;;;18.82;41.01
19150;BME280;9707;49.158;8.632;2023-02-19T05:40:43;100961.28;;;18.82;41.00
19150;BME280;9707;49.158;8.632;2023-02-19T05:43:09;100952.31;;;18.81;40.96
19150;BME280;9707;49.158;8.632;2023-02-19T05:45:35;100959.53;;;18.81;41.06
19150;BME280;9707;49.158;8.632;2023-02-19T05:48:01;100962.34;;;18.79;41.13
19150;BME280;9707;49.158;8.632;2023-02-19T05:50:28;100965.13;;;18.78;41.15
19150;BME280;9707;49.158;8.632;2023-02-19T05:52:53;100969.66;;;18.77;41.13
19150;BME280;9707;49.158;8.632;2023-02-19T05:55:18;100970.63;;;18.76;41.03
19150;BME280;9707;49.158;8.632;2023-02-19T05:57:46;100969.75;;;18.76;41.22
19150;BME280;9707;49.158;8.632;2023-02-19T06:00:14;100968.88;;;18.75;41.14
19150;BME280;9707;49.158;8.632;2023-02-19T06:02:39;100963.47;;;18.75;41.28
19150;BME280;9707;49.158;8.632;2023-02-19T06:05:05;100975.16;;;18.76;41.07
19150;BME280;9707;49.158;8.632;2023-02-19T06:07:31;100974.28;;;18.75;41.04
19150;BME280;9707;49.158;8.632;2023-02-19T06:09:56;100976.03;;;18.76;41.03
19150;BME280;9707;49.158;8.632;2023-02-19T06:12:21;100981.44;;;18.76;41.03
19150;BME280;9707;49.158;8.632;2023-02-19T06:14:47;100994.81;;;18.78;40.91
19150;BME280;9707;49.158;8.632;2023-02-19T06:17:13;100994.81;;;18.78;40.92
19150;BME280;9707;49.158;8.632;2023-02-19T06:19:38;101003.88;;;18.77;40.86
19150;BME280;9707;49.158;8.632;2023-02-19T06:22:03;100996.66;;;18.77;40.91
19150;BME280;9707;49.158;8.632;2023-02-19T06:24:29;101008.44;;;18.76;40.73
19150;BME280;9707;49.158;8.632;2023-02-19T06:26:54;101008.50;;;18.75;41.00
19150;BME280;9707;49.158;8.632;2023-02-19T06:29:20;101014.88;;;18.74;40.89
19150;BME280;9707;49.158;8.632;2023-02-19T06:31:45;101027.50;;;18.73;40.90
19150;BME280;9707;49.158;8.632;2023-02-19T06:34:10;101030.19;;;18.73;41.07
19150;BME280;9707;49.158;8.632;2023-02-19T06:36:35;101020.28;;;18.74;41.10
19150;BME280;9707;49.158;8.632;2023-02-19T06:39:02;101037.25;;;18.76;41.08
19150;BME280;9707;49.158;8.632;2023-02-19T06:41:28;101040.69;;;18.78;41.07
19150;BME280;9707;49.158;8.632;2023-02-19T06:43:56;101042.47;;;18.79;41.10
19150;BME280;9707;49.158;8.632;2023-02-19T06:46:21;101041.50;;;18.80;41.17
19150;BME280;9707;49.158;8.632;2023-02-19T06:48:46;101046.00;;;18.79;41.12
19150;BME280;9707;49.158;8.632;2023-02-19T06:51:14;101044.19;;;18.80;41.19
19150;BME280;9707;49.158;8.632;2023-02-19T06:53:40;101044.19;;;18.80;41.07
19150;BME280;9707;49.158;8.632;2023-02-19T06:56:19;101046.88;;;18.80;41.27
19150;BME280;9707;49.158;8.632;2023-02-19T06:58:46;101045.16;;;18.79;41.22
19150;BME280;9707;49.158;8.632;2023-02-19T07:01:11;101048.72;;;18.79;41.19
19150;BME280;9707;49.158;8.632;2023-02-19T07:03:37;101051.31;;;18.81;41.16
19150;BME280;9707;49.158;8.632;2023-02-19T07:06:02;101066.63;;;18.80;41.13
19150;BME280;9707;49.158;8.632;2023-02-19T07:08:30;101064.81;;;18.81;41.09
19150;BME280;9707;49.158;8.632;2023-02-19T07:10:56;101079.28;;;18.80;41.25
19150;BME280;9707;49.158;8.632;2023-02-19T07:13:25;101084.69;;;18.80;41.25
19150;BME280;9707;49.158;8.632;2023-02-19T07:15:51;101081.97;;;18.80;41.28
19150;BME280;9707;49.158;8.632;2023-02-19T07:18:16;101095.47;;;18.80;41.11
19150;BME280;9707;49.158;8.632;2023-02-19T07:20:42;101104.53;;;18.79;41.10
19150;BME280;9707;49.158;8.632;2023-02-19T07:23:07;101108.97;;;18.80;41.25
19150;BME280;9707;49.158;8.632;2023-02-19T07:25:32;101108.88;;;18.81;40.98
19150;BME280;9707;49.158;8.632;2023-02-19T07:27:57;101111.47;;;18.83;41.05
19150;BME280;9707;49.158;8.632;2023-02-19T07:30:23;101114.06;;;18.84;41.21
19150;BME280;9707;49.158;8.632;2023-02-19T07:32:48;101115.81;;;18.85;41.08
19150;BME280;9707;49.158;8.632;2023-02-19T07:35:13;101105.88;;;18.86;40.90
19150;BME280;9707;49.158;8.632;2023-02-19T07:37:40;101111.28;;;18.86;40.98
19150;BME280;9707;49.158;8.632;2023-02-19T07:40:05;101096.91;;;18.85;41.03
19150;BME280;9707;49.158;8.632;2023-02-19T07:42:31;101095.09;;;18.86;40.88
19150;BME280;9707;49.158;8.632;2023-02-19T07:44:56;101099.59;;;18.85;41.17
19150;BME280;9707;49.158;8.632;2023-02-19T07:47:22;101094.22;;;18.85;41.06
19150;BME280;9707;49.158;8.632;2023-02-19T07:49:47;101101.47;;;18.85;41.16
19150;BME280;9707;49.158;8.632;2023-02-19T07:52:13;101098.84;;;18.83;41.31
19150;BME280;9707;49.158;8.632;2023-02-19T07:54:38;101093.53;;;18.82;41.38
19150;BME280;9707;49.158;8.632;2023-02-19T07:57:03;101099.91;;;18.81;41.32
19150;BME280;9707;49.158;8.632;2023-02-19T07:59:28;101104.41;;;18.80;41.33
19150;BME280;9707;49.158;8.632;2023-02-19T08:01:54;101100.88;;;18.80;41.45
19150;BME280;9707;49.158;8.632;2023-02-19T08:04:38;101095.47;;;18.80;41.39
19150;BME280;9707;49.158;8.632;2023-02-19T08:07:03;101090.91;;;18.80;41.42
19150;BME280;9707;49.158;8.632;2023-02-19T08:09:29;101093.53;;;18.82;41.31
19150;BME280;9707;49.158;8.632;2023-02-19T08:11:55;101089.03;;;18.82;41.31
19150;BME280;9707;49.158;8.632;2023-02-19T08:14:38;101109.72;;;18.82;41.33
19150;BME280;9707;49.158;8.632;2023-02-19T08:17:03;101116.88;;;18.83;41.20
19150;BME280;9707;49.158;8.632;2023-02-19T08:19:29;101125.75;;;18.85;41.16
19150;BME280;9707;49.158;8.632;2023-02-19T08:21:54;101123.06;;;18.85;41.10
19150;BME280;9707;49.158;8.632;2023-02-19T08:24:19;101119.38;;;18.86;41.14
19150;BME280;9707;49.158;8.632;2023-02-19T08:26:45;101126.59;;;18.85;41.03
19150;BME280;9707;49.158;8.632;2023-02-19T08:29:10;101119.38;;;18.86;40.88
19150;BME280;9707;49.158;8.632;2023-02-19T08:31:35;101120.34;;;18.85;41.04
19150;BME280;9707;49.158;8.632;2023-02-19T08:34:01;101124.03;;;18.84;40.98
19150;BME280;9707;49.158;8.632;2023-02-19T08:36:26;101118.63;;;18.84;40.90
19150;BME280;9707;49.158;8.632;2023-02-19T08:38:52;101117.75;;;18.83;40.93
19150;BME280;9707;49.158;8.632;2023-02-19T08:41:17;101118.63;;;18.84;40.89
19150;BME280;9707;49.158;8.632;2023-02-19T08:43:42;101128.47;;;18.85;40.90
19150;BME280;9707;49.158;8.632;2023-02-19T08:46:09;101132.78;;;18.87;40.92
19150;BME280;9707;49.158;8.632;2023-02-19T08:48:35;101122.84;;;18.88;40.72
19150;BME280;9707;49.158;8.632;2023-02-19T08:51:02;101116.50;;;18.89;40.89
19150;BME280;9707;49.158;8.632;2023-02-19T08:53:29;101128.06;;;18.91;40.70
19150;BME280;9707;49.158;8.632;2023-02-19T08:55:54;101122.59;;;18.92;40.64
19150;BME280;9707;49.158;8.632;2023-02-19T08:58:20;101118.03;;;18.93;40.54
19150;BME280;9707;49.158;8.632;2023-02-19T09:00:45;101130.59;;;18.94;40.55
19150;BME280;9707;49.158;8.632;2023-02-19T09:03:11;101134.94;;;18.96;40.53
19150;BME280;9707;49.158;8.632;2023-02-19T09:05:37;101139.28;;;18.99;40.52
19150;BME280;9707;49.158;8.632;2023-02-19T09:08:03;101145.53;;;18.99;40.46
19150;BME280;9707;49.158;8.632;2023-02-19T09:10:28;101160.69;;;19.02;40.41
19150;BME280;9707;49.158;8.632;2023-02-19T09:12:53;101162.41;;;19.03;40.58
19150;BME280;9707;49.158;8.632;2023-02-19T09:15:19;101155.09;;;19.05;40.06
19150;BME280;9707;49.158;8.632;2023-02-19T09:17:46;101163.97;;;19.07;40.30
19150;BME280;9707;49.158;8.632;2023-02-19T09:20:14;101163.97;;;19.07;40.31
19150;BME280;9707;49.158;8.632;2023-02-19T09:22:40;101173.88;;;19.06;40.37
19150;BME280;9707;49.158;8.632;2023-02-19T09:25:05;101175.53;;;19.09;40.23
19150;BME280;9707;49.158;8.632;2023-02-19T09:27:30;101174.59;;;19.10;40.22
19150;BME280;9707;49.158;8.632;2023-02-19T09:29:56;101188.84;;;19.12;39.92
19150;BME280;9707;49.158;8.632;2023-02-19T09:32:21;101181.53;;;19.14;40.07
19150;BME280;9707;49.158;8.632;2023-02-19T09:34:46;101202.19;;;19.15;39.94
19150;BME280;9707;49.158;8.632;2023-02-19T09:37:15;101195.81;;;19.16;39.77
19150;BME280;9707;49.158;8.632;2023-02-19T09:39:41;101206.63;;;19.16;39.71
19150;BME280;9707;49.158;8.632;2023-02-19T09:42:11;101210.97;;;19.18;39.77
19150;BME280;9707;49.158;8.632;2023-02-19T09:44:41;101212.69;;;19.19;39.76
19150;BME280;9707;49.158;8.632;2023-02-19T09:47:15;101200.94;;;19.20;39.66
19150;BME280;9707;49.158;8.632;2023-02-19T09:49:43;101205.34;;;19.21;39.82
19150;BME280;9707;49.158;8.632;2023-02-19T09:54:48;101205.97;;;19.26;39.77
19150;BME280;9707;49.158;8.632;2023-02-19T09:57:18;101205.13;;;19.26;39.69
19150;BME280;9707;49.158;8.632;2023-02-19T09:59:48;101208.69;;;19.26;39.30
19150;BME280;9707;49.158;8.632;2023-02-19T10:02:16;101201.53;;;19.25;39.36
19150;BME280;9707;49.158;8.632;2023-02-19T10:04:44;101217.66;;;19.27;39.38
19150;BME280;9707;49.158;8.632;2023-02-19T10:07:20;101218.44;;;19.29;39.06
19150;BME280;9707;49.158;8.632;2023-02-19T10:09:51;101213.03;;;19.29;38.91
19150;BME280;9707;49.158;8.632;2023-02-19T10:12:23;101212.19;;;19.28;39.07
19150;BME280;9707;49.158;8.632;2023-02-19T10:14:51;101220.19;;;19.30;39.02
19150;BME280;9707;49.158;8.632;2023-02-19T10:17:38;101214.59;;;19.33;38.95
19150;BME280;9707;49.158;8.632;2023-02-19T10:20:04;101220.78;;;19.35;38.91
19150;BME280;9707;49.158;8.632;2023-02-19T10:22:31;101220.66;;;19.36;39.08
19150;BME280;9707;49.158;8.632;2023-02-19T10:24:59;101220.47;;;19.39;39.08
19150;BME280;9707;49.158;8.632;2023-02-19T10:27:28;101212.28;;;19.41;38.92
19150;BME280;9707;49.158;8.632;2023-02-19T10:29:55;101219.44;;;19.42;38.76
19150;BME280;9707;49.158;8.632;2023-02-19T10:32:23;101213.94;;;19.43;38.80
19150;BME280;9707;49.158;8.632;2023-02-19T10:35:10;101230.91;;;19.45;38.83
19150;BME280;9707;49.158;8.632;2023-02-19T10:37:41;101238.94;;;19.47;38.70
19150;BME280;9707;49.158;8.632;2023-02-19T10:40:14;101228.13;;;19.47;38.56
19150;BME280;9707;49.158;8.632;2023-02-19T10:42:44;101230.81;;;19.47;38.74
19150;BME280;9707;49.158;8.632;2023-02-19T10:45:16;101226.28;;;19.47;38.72
19150;BME280;9707;49.158;8.632;2023-02-19T10:47:45;101233.34;;;19.50;38.74
19150;BME280;9707;49.158;8.632;2023-02-19T10:50:43;101240.47;;;19.51;38.47
19150;BME280;9707;49.158;8.632;2023-02-19T10:53:22;101235.06;;;19.51;38.51
19150;BME280;9707;49.158;8.632;2023-02-19T10:55:48;101254.06;;;19.49;38.53
19150;BME280;9707;49.158;8.632;2023-02-19T10:58:29;101248.59;;;19.51;38.15
19150;BME280;9707;49.158;8.632;2023-02-19T11:03:50;101242.97;;;19.54;37.93
19150;BME280;9707;49.158;8.632;2023-02-19T11:06:19;101243.94;;;19.53;38.10
19150;BME280;9707;49.158;8.632;2023-02-19T11:08:46;101241.16;;;19.54;37.83
19150;BME280;9707;49.158;8.632;2023-02-19T11:11:35;101232.06;;;19.55;37.92
19150;BME280;9707;49.158;8.632;2023-02-19T11:14:06;101238.34;;;19.56;37.85
19150;BME280;9707;49.158;8.632;2023-02-19T11:16:49;101237.31;;;19.58;37.76
19150;BME280;9707;49.158;8.632;2023-02-19T11:21:54;101257.88;;;19.61;37.69
19150;BME280;9707;49.158;8.632;2023-02-19T11:24:40;101262.28;;;19.62;37.57
19150;BME280;9707;49.158;8.632;2023-02-19T11:27:06;101266.72;;;19.63;37.69
19150;BME280;9707;49.158;8.632;2023-02-19T11:29:40;101273.88;;;19.64;37.74
19150;BME280;9707;49.158;8.632;2023-02-19T11:32:22;101272.81;;;19.66;37.67
19150;BME280;9707;49.158;8.632;2023-02-19T11:34:48;101281.81;;;19.67;37.83
19150;BME280;9707;49.158;8.632;2023-02-19T11:37:16;101286.25;;;19.68;37.82
19150;BME280;9707;49.158;8.632;2023-02-19T11:39:47;101284.34;;;19.70;37.70
19150;BME280;9707;49.158;8.632;2023-02-19T11:42:23;101286.06;;;19.71;37.73
19150;BME280;9707;49.158;8.632;2023-02-19T11:45:29;101296.78;;;19.72;37.70
19150;BME280;9707;49.158;8.632;2023-02-19T11:56:05;101297.47;;;19.76;38.29
19150;BME280;9707;49.158;8.632;2023-02-19T12:01:41;101288.28;;;19.78;38.76
19150;BME280;9707;49.158;8.632;2023-02-19T12:09:56;101278.22;;;19.80;39.79
19150;BME280;9707;49.158;8.632;2023-02-19T12:22:59;101273.09;;;19.90;40.06
19150;BME280;9707;49.158;8.632;2023-02-19T12:39:15;101266.16;;;20.00;39.66
19150;BME280;9707;49.158;8.632;2023-02-19T12:41:49;101282.28;;;20.01;39.47
19150;BME280;9707;49.158;8.632;2023-02-19T12:44:36;101285.88;;;20.02;39.37
19150;BME280;9707;49.158;8.632;2023-02-19T12:47:03;101291.28;;;20.02;39.23
19150;BME280;9707;49.158;8.632;2023-02-19T12:49:35;101281.31;;;20.02;39.13
19150;BME280;9707;49.158;8.632;2023-02-19T12:52:22;101276.78;;;20.03;39.27
19150;BME280;9707;49.158;8.632;2023-02-19T12:54:52;101271.38;;;20.03;39.12
19150;BME280;9707;49.158;8.632;2023-02-19T12:57:24;101285.66;;;20.05;38.95
19150;BME280;9707;49.158;8.632;2023-02-19T13:02:52;101272.13;;;20.05;38.80
19150;BME280;9707;49.158;8.632;2023-02-19T13:05:48;101257.66;;;20.06;39.04
19150;BME280;9707;49.158;8.632;2023-02-19T13:11:16;101252.16;;;20.07;38.43
19150;BME280;9707;49.158;8.632;2023-02-19T13:13:45;101251.22;;;20.08;38.71
19150;BME280;9707;49.158;8.632;2023-02-19T13:16:14;101263.00;;;20.07;38.60
19150;BME280;9707;49.158;8.632;2023-02-19T13:19:04;101256.69;;;20.07;38.58
19150;BME280;9707;49.158;8.632;2023-02-19T13:21:35;101258.47;;;20.08;38.43
19150;BME280;9707;49.158;8.632;2023-02-19T13:24:29;101262.09;;;20.07;38.54
19150;BME280;9707;49.158;8.632;2023-02-19T13:27:03;101262.91;;;20.09;38.46
19150;BME280;9707;49.158;8.632;2023-02-19T13:30:02;101265.59;;;20.09;38.25
19150;BME280;9707;49.158;8.632;2023-02-19T13:33:00;101257.47;;;20.09;38.15
19150;BME280;9707;49.158;8.632;2023-02-19T13:38:10;101258.47;;;20.08;37.79
19150;BME280;9707;49.158;8.632;2023-02-19T13:40:41;101253.06;;;20.08;37.97
19150;BME280;9707;49.158;8.632;2023-02-19T13:45:56;101246.66;;;20.09;37.63
19150;BME280;9707;49.158;8.632;2023-02-19T14:04:42;101228.75;;;20.06;37.60
19150;BME280;9707;49.158;8.632;2023-02-19T14:14:37;101231.22;;;20.11;37.41
19150;BME280;9707;49.158;8.632;2023-02-19T14:17:15;101220.41;;;20.11;37.55
19150;BME280;9707;49.158;8.632;2023-02-19T14:22:57;101228.41;;;20.12;37.12
19150;BME280;9707;49.158;8.632;2023-02-19T14:25:41;101239.13;;;20.14;37.23
19150;BME280;9707;49.158;8.632;2023-02-19T14:28:31;101240.09;;;20.13;37.12
19150;BME280;9707;49.158;8.632;2023-02-19T14:31:07;101245.50;;;20.13;37.04
19150;BME280;9707;49.158;8.632;2023-02-19T14:33:37;101249.09;;;20.13;36.83
19150;BME280;9707;49.158;8.632;2023-02-19T14:36:13;101252.66;;;20.14;36.33
19150;BME280;9707;49.158;8.632;2023-02-19T14:38:53;101264.44;;;20.13;35.77
19150;BME280;9707;49.158;8.632;2023-02-19T14:41:20;101254.59;;;20.12;35.98
19150;BME280;9707;49.158;8.632;2023-02-19T14:43:54;101266.25;;;20.12;36.04
19150;BME280;9707;49.158;8.632;2023-02-19T14:46:31;101273.44;;;20.13;36.07
19150;BME280;9707;49.158;8.632;2023-02-19T14:49:04;101279.69;;;20.14;36.14